sensor_id;sensor_type;location;lat;lon;timestamp;P1;durP1;ratioP1;P2;durP2;ratioP2
8007;SDS011;4049;49.468;11.200;2023-08-21T00:00:19;12.88;;;8.23;;
8007;SDS011;4049;49.468;11.200;2023-08-21T00:02:46;9.35;;;8.30;;
8007;SDS011;4049;49.468;11.200;2023-08-21T00:05:12;11.68;;;8.45;;
8007;SDS011;4049;49.468;11.200;2023-08-21T00:07:39;10.57;;;8.40;;
8007;SDS011;4049;49.468;11.200;2023-08-21T00:10:06;10.25;;;8.25;;
8007;SDS011;4049;49.468;11.200;2023-08-21T00:12:35;12.07;;;8.35;;
8007;SDS011;4049;49.468;11.200;2023-08-21T00:15:03;10.18;;;8.07;;
8007;SDS011;4049;49.468;11.200;2023-08-21T00:17:30;10.70;;;8.80;;
8007;SDS011;4049;49.468;11.200;2023-08-21T00:19:58;11.95;;;8.27;;
8007;SDS011;4049;49.468;11.200;2023-08-21T00:22:24;11.25;;;8.55;;
8007;SDS011;4049;49.468;11.200;2023-08-21T00:24:51;11.82;;;8.40;;
8007;SDS011;4049;49.468;11.200;2023-08-21T00:27:18;9.85;;;8.00;;
8007;SDS011;4049;49.468;11.200;2023-08-21T00:29:45;11.52;;;8.25;;
8007;SDS011;4049;49.468;11.200;2023-08-21T00:32:13;9.20;;;8.20;;
8007;SDS011;4049;49.468;11.200;2023-08-21T00:34:41;10.05;;;8.20;;
8007;SDS011;4049;49.468;11.200;2023-08-21T00:37:09;12.80;;;8.68;;
8007;SDS011;4049;49.468;11.200;2023-08-21T00:39:37;9.60;;;8.60;;
8007;SDS011;4049;49.468;11.200;2023-08-21T00:42:03;12.35;;;9.00;;
8007;SDS011;4049;49.468;11.200;2023-08-21T00:44:32;11.05;;;9.23;;
8007;SDS011;4049;49.468;11.200;2023-08-21T00:47:05;13.77;;;8.52;;
8007;SDS011;4049;49.468;11.200;2023-08-21T00:49:34;10.85;;;8.32;;
8007;SDS011;4049;49.468;11.200;2023-08-21T00:52:01;11.15;;;8.20;;
8007;SDS011;4049;49.468;11.200;2023-08-21T00:54:29;12.40;;;8.82;;
8007;SDS011;4049;49.468;11.200;2023-08-21T00:56:56;11.30;;;8.52;;
8007;SDS011;4049;49.468;11.200;2023-08-21T00:59:23;8.95;;;8.05;;
8007;SDS011;4049;49.468;11.200;2023-08-21T01:01:50;10.43;;;8.38;;
8007;SDS011;4049;49.468;11.200;2023-08-21T01:04:17;12.05;;;8.52;;
8007;SDS011;4049;49.468;11.200;2023-08-21T01:06:46;10.82;;;7.95;;
8007;SDS011;4049;49.468;11.200;2023-08-21T01:09:17;9.63;;;8.13;;
8007;SDS011;4049;49.468;11.200;2023-08-21T01:11:50;10.65;;;8.10;;
8007;SDS011;4049;49.468;11.200;2023-08-21T01:14:25;10.85;;;8.40;;
8007;SDS011;4049;49.468;11.200;2023-08-21T01:16:57;11.73;;;8.38;;
8007;SDS011;4049;49.468;11.200;2023-08-21T01:19:30;11.45;;;8.55;;
8007;SDS011;4049;49.468;11.200;2023-08-21T01:22:00;10.80;;;8.40;;
8007;SDS011;4049;49.468;11.200;2023-08-21T01:24:34;9.27;;;8.23;;
8007;SDS011;4049;49.468;11.200;2023-08-21T01:27:01;11.57;;;8.75;;
8007;SDS011;4049;49.468;11.200;2023-08-21T01:29:30;13.20;;;8.48;;
8007;SDS011;4049;49.468;11.200;2023-08-21T01:31:58;11.32;;;8.35;;
8007;SDS011;4049;49.468;11.200;2023-08-21T01:34:31;10.15;;;8.95;;
8007;SDS011;4049;49.468;11.200;2023-08-21T01:37:03;11.23;;;8.75;;
8007;SDS011;4049;49.468;11.200;2023-08-21T01:39:35;14.18;;;9.00;;
8007;SDS011;4049;49.468;11.200;2023-08-21T01:42:02;9.98;;;8.70;;
8007;SDS011;4049;49.468;11.200;2023-08-21T01:44:36;9.75;;;8.75;;
8007;SDS011;4049;49.468;11.200;2023-08-21T01:47:03;12.15;;;8.65;;
8007;SDS011;4049;49.468;11.200;2023-08-21T01:49:31;12.57;;;9.88;;
8007;SDS011;4049;49.468;11.200;2023-08-21T01:51:57;12.43;;;9.45;;
8007;SDS011;4049;49.468;11.200;2023-08-21T01:54:24;12.35;;;9.95;;
8007;SDS011;4049;49.468;11.200;2023-08-21T01:56:53;11.82;;;9.73;;
8007;SDS011;4049;49.468;11.200;2023-08-21T01:59:20;10.88;;;9.10;;
8007;SDS011;4049;49.468;11.200;2023-08-21T02:01:47;10.57;;;9.48;;
8007;SDS011;4049;49.468;11.200;2023-08-21T02:04:14;12.02;;;9.35;;
8007;SDS011;4049;49.468;11.200;2023-08-21T02:06:41;11.35;;;10.13;;
8007;SDS011;4049;49.468;11.200;2023-08-21T02:09:09;13.55;;;10.25;;
8007;SDS011;4049;49.468;11.200;2023-08-21T02:11:36;12.85;;;10.20;;
8007;SDS011;4049;49.468;11.200;2023-08-21T02:14:04;10.93;;;9.20;;
8007;SDS011;4049;49.468;11.200;2023-08-21T02:16:31;11.20;;;9.70;;
8007;SDS011;4049;49.468;11.200;2023-08-21T02:18:58;10.80;;;9.70;;
8007;SDS011;4049;49.468;11.200;2023-08-21T02:21:25;10.55;;;9.45;;
8007;SDS011;4049;49.468;11.200;2023-08-21T02:23:53;12.27;;;9.68;;
8007;SDS011;4049;49.468;11.200;2023-08-21T02:26:19;11.75;;;9.88;;
8007;SDS011;4049;49.468;11.200;2023-08-21T02:28:46;11.25;;;10.15;;
8007;SDS011;4049;49.468;11.200;2023-08-21T02:31:15;11.27;;;9.50;;
8007;SDS011;4049;49.468;11.200;2023-08-21T02:33:42;10.40;;;9.38;;
8007;SDS011;4049;49.468;11.200;2023-08-21T02:36:09;10.27;;;9.23;;
8007;SDS011;4049;49.468;11.200;2023-08-21T02:38:36;11.25;;;9.48;;
8007;SDS011;4049;49.468;11.200;2023-08-21T02:41:03;10.85;;;9.75;;
8007;SDS011;4049;49.468;11.200;2023-08-21T02:43:33;13.65;;;10.32;;
8007;SDS011;4049;49.468;11.200;2023-08-21T02:46:00;10.88;;;9.60;;
8007;SDS011;4049;49.468;11.200;2023-08-21T02:48:28;11.10;;;10.02;;
8007;SDS011;4049;49.468;11.200;2023-08-21T02:50:55;13.02;;;10.50;;
8007;SDS011;4049;49.468;11.200;2023-08-21T02:53:22;13.95;;;10.02;;
8007;SDS011;4049;49.468;11.200;2023-08-21T02:55:49;11.38;;;9.70;;
8007;SDS011;4049;49.468;11.200;2023-08-21T02:58:18;13.43;;;10.68;;
8007;SDS011;4049;49.468;11.200;2023-08-21T03:00:46;12.32;;;10.63;;
8007;SDS011;4049;49.468;11.200;2023-08-21T03:03:12;13.77;;;10.73;;
8007;SDS011;4049;49.468;11.200;2023-08-21T03:05:40;12.60;;;10.40;;
8007;SDS011;4049;49.468;11.200;2023-08-21T03:08:08;13.35;;;10.50;;
8007;SDS011;4049;49.468;11.200;2023-08-21T03:10:35;12.68;;;10.55;;
8007;SDS011;4049;49.468;11.200;2023-08-21T03:13:02;12.32;;;9.90;;
8007;SDS011;4049;49.468;11.200;2023-08-21T03:15:29;11.75;;;10.43;;
8007;SDS011;4049;49.468;11.200;2023-08-21T03:17:56;14.70;;;10.48;;
8007;SDS011;4049;49.468;11.200;2023-08-21T03:20:23;12.27;;;9.93;;
8007;SDS011;4049;49.468;11.200;2023-08-21T03:22:51;12.45;;;10.57;;
8007;SDS011;4049;49.468;11.200;2023-08-21T03:25:18;12.05;;;10.55;;
8007;SDS011;4049;49.468;11.200;2023-08-21T03:27:45;15.52;;;10.68;;
8007;SDS011;4049;49.468;11.200;2023-08-21T03:30:14;12.10;;;9.90;;
8007;SDS011;4049;49.468;11.200;2023-08-21T03:32:42;13.43;;;10.60;;
8007;SDS011;4049;49.468;11.200;2023-08-21T03:35:08;13.52;;;10.75;;
8007;SDS011;4049;49.468;11.200;2023-08-21T03:37:36;13.40;;;10.85;;
8007;SDS011;4049;49.468;11.200;2023-08-21T03:40:04;11.80;;;9.98;;
8007;SDS011;4049;49.468;11.200;2023-08-21T03:42:32;12.07;;;10.43;;
8007;SDS011;4049;49.468;11.200;2023-08-21T03:44:59;13.10;;;10.93;;
8007;SDS011;4049;49.468;11.200;2023-08-21T03:47:26;12.27;;;10.10;;
8007;SDS011;4049;49.468;11.200;2023-08-21T03:49:53;11.32;;;10.10;;
8007;SDS011;4049;49.468;11.200;2023-08-21T03:52:19;14.20;;;10.25;;
8007;SDS011;4049;49.468;11.200;2023-08-21T03:54:50;12.75;;;9.68;;
8007;SDS011;4049;49.468;11.200;2023-08-21T03:57:20;11.93;;;10.30;;
8007;SDS011;4049;49.468;11.200;2023-08-21T03:59:47;11.50;;;9.90;;
8007;SDS011;4049;49.468;11.200;2023-08-21T04:02:14;10.77;;;9.68;;
8007;SDS011;4049;49.468;11.200;2023-08-21T04:04:41;13.35;;;10.43;;
8007;SDS011;4049;49.468;11.200;2023-08-21T04:07:08;13.35;;;9.55;;
8007;SDS011;4049;49.468;11.200;2023-08-21T04:09:35;10.90;;;9.75;;
8007;SDS011;4049;49.468;11.200;2023-08-21T04:12:01;11.68;;;9.50;;
8007;SDS011;4049;49.468;11.200;2023-08-21T04:14:30;9.80;;;8.80;;
8007;SDS011;4049;49.468;11.200;2023-08-21T04:16:57;11.35;;;9.38;;
8007;SDS011;4049;49.468;11.200;2023-08-21T04:19:24;11.20;;;10.00;;
8007;SDS011;4049;49.468;11.200;2023-08-21T04:21:55;10.80;;;9.70;;
8007;SDS011;4049;49.468;11.200;2023-08-21T04:24:21;13.27;;;9.73;;
8007;SDS011;4049;49.468;11.200;2023-08-21T04:26:48;11.80;;;9.98;;
8007;SDS011;4049;49.468;11.200;2023-08-21T04:29:15;12.80;;;9.60;;
8007;SDS011;4049;49.468;11.200;2023-08-21T04:31:43;12.63;;;9.98;;
8007;SDS011;4049;49.468;11.200;2023-08-21T04:34:10;20.13;;;10.65;;
8007;SDS011;4049;49.468;11.200;2023-08-21T04:36:38;11.68;;;9.90;;
8007;SDS011;4049;49.468;11.200;2023-08-21T04:39:04;11.73;;;10.35;;
8007;SDS011;4049;49.468;11.200;2023-08-21T04:41:31;13.48;;;10.32;;
8007;SDS011;4049;49.468;11.200;2023-08-21T04:43:58;13.90;;;11.32;;
8007;SDS011;4049;49.468;11.200;2023-08-21T04:46:26;11.60;;;10.05;;
8007;SDS011;4049;49.468;11.200;2023-08-21T04:48:54;12.45;;;10.60;;
8007;SDS011;4049;49.468;11.200;2023-08-21T04:51:21;12.98;;;10.82;;
8007;SDS011;4049;49.468;11.200;2023-08-21T04:53:48;14.13;;;10.88;;
8007;SDS011;4049;49.468;11.200;2023-08-21T04:56:15;12.55;;;10.50;;
8007;SDS011;4049;49.468;11.200;2023-08-21T04:58:42;13.75;;;10.95;;
8007;SDS011;4049;49.468;11.200;2023-08-21T05:01:09;13.05;;;10.73;;
8007;SDS011;4049;49.468;11.200;2023-08-21T05:03:37;12.40;;;11.00;;
8007;SDS011;4049;49.468;11.200;2023-08-21T05:06:05;12.70;;;10.48;;
8007;SDS011;4049;49.468;11.200;2023-08-21T05:08:33;14.15;;;10.57;;
8007;SDS011;4049;49.468;11.200;2023-08-21T05:11:00;14.70;;;11.20;;
8007;SDS011;4049;49.468;11.200;2023-08-21T05:13:28;12.23;;;10.93;;
8007;SDS011;4049;49.468;11.200;2023-08-21T05:15:55;12.43;;;10.73;;
8007;SDS011;4049;49.468;11.200;2023-08-21T05:18:24;13.32;;;10.45;;
8007;SDS011;4049;49.468;11.200;2023-08-21T05:20:53;13.20;;;11.52;;
8007;SDS011;4049;49.468;11.200;2023-08-21T05:23:22;15.30;;;11.18;;
8007;SDS011;4049;49.468;11.200;2023-08-21T05:25:49;12.18;;;10.45;;
8007;SDS011;4049;49.468;11.200;2023-08-21T05:28:16;12.65;;;10.88;;
8007;SDS011;4049;49.468;11.200;2023-08-21T05:30:43;14.82;;;11.32;;
8007;SDS011;4049;49.468;11.200;2023-08-21T05:33:13;16.70;;;11.90;;
8007;SDS011;4049;49.468;11.200;2023-08-21T05:35:40;15.50;;;11.63;;
8007;SDS011;4049;49.468;11.200;2023-08-21T05:38:07;13.35;;;11.98;;
8007;SDS011;4049;49.468;11.200;2023-08-21T05:40:36;15.63;;;12.45;;
8007;SDS011;4049;49.468;11.200;2023-08-21T05:43:03;13.15;;;11.75;;
8007;SDS011;4049;49.468;11.200;2023-08-21T05:45:29;12.95;;;11.57;;
8007;SDS011;4049;49.468;11.200;2023-08-21T05:47:57;12.85;;;11.32;;
8007;SDS011;4049;49.468;11.200;2023-08-21T05:50:23;12.05;;;10.82;;
8007;SDS011;4049;49.468;11.200;2023-08-21T05:52:50;13.07;;;11.43;;
8007;SDS011;4049;49.468;11.200;2023-08-21T05:55:19;12.93;;;11.63;;
8007;SDS011;4049;49.468;11.200;2023-08-21T05:57:47;14.60;;;11.10;;
8007;SDS011;4049;49.468;11.200;2023-08-21T06:00:15;15.02;;;11.23;;
8007;SDS011;4049;49.468;11.200;2023-08-21T06:02:44;12.32;;;11.02;;
8007;SDS011;4049;49.468;11.200;2023-08-21T06:05:11;13.15;;;11.63;;
8007;SDS011;4049;49.468;11.200;2023-08-21T06:07:38;16.30;;;11.70;;
8007;SDS011;4049;49.468;11.200;2023-08-21T06:10:06;14.60;;;12.02;;
8007;SDS011;4049;49.468;11.200;2023-08-21T06:12:36;14.18;;;12.15;;
8007;SDS011;4049;49.468;11.200;2023-08-21T06:15:05;16.30;;;12.38;;
8007;SDS011;4049;49.468;11.200;2023-08-21T06:17:33;14.52;;;12.50;;
8007;SDS011;4049;49.468;11.200;2023-08-21T06:20:01;14.52;;;12.43;;
8007;SDS011;4049;49.468;11.200;2023-08-21T06:22:30;14.57;;;12.38;;
8007;SDS011;4049;49.468;11.200;2023-08-21T06:24:57;13.75;;;11.70;;
8007;SDS011;4049;49.468;11.200;2023-08-21T06:27:24;12.63;;;11.30;;
8007;SDS011;4049;49.468;11.200;2023-08-21T06:29:51;14.27;;;12.02;;
8007;SDS011;4049;49.468;11.200;2023-08-21T06:32:19;14.57;;;12.32;;
8007;SDS011;4049;49.468;11.200;2023-08-21T16:49:59;5.88;;;4.43;;
8007;SDS011;4049;49.468;11.200;2023-08-21T16:52:26;5.70;;;4.68;;
8007;SDS011;4049;49.468;11.200;2023-08-21T16:54:52;5.68;;;4.50;;
8007;SDS011;4049;49.468;11.200;2023-08-21T16:57:20;6.55;;;4.60;;
8007;SDS011;4049;49.468;11.200;2023-08-21T16:59:47;5.78;;;4.75;;
8007;SDS011;4049;49.468;11.200;2023-08-21T17:02:14;5.32;;;4.70;;
8007;SDS011;4049;49.468;11.200;2023-08-21T17:04:45;5.22;;;4.65;;
8007;SDS011;4049;49.468;11.200;2023-08-21T17:07:14;5.18;;;4.50;;
8007;SDS011;4049;49.468;11.200;2023-08-21T17:09:43;5.40;;;4.40;;
8007;SDS011;4049;49.468;11.200;2023-08-21T17:12:11;8.13;;;4.88;;
8007;SDS011;4049;49.468;11.200;2023-08-21T17:14:38;5.28;;;4.68;;
8007;SDS011;4049;49.468;11.200;2023-08-21T17:17:05;5.55;;;4.32;;
8007;SDS011;4049;49.468;11.200;2023-08-21T17:19:31;7.30;;;4.85;;
8007;SDS011;4049;49.468;11.200;2023-08-21T17:21:58;5.05;;;4.35;;
8007;SDS011;4049;49.468;11.200;2023-08-21T17:24:26;6.38;;;4.70;;
8007;SDS011;4049;49.468;11.200;2023-08-21T17:26:53;4.78;;;4.28;;
8007;SDS011;4049;49.468;11.200;2023-08-21T17:29:23;5.82;;;4.55;;
8007;SDS011;4049;49.468;11.200;2023-08-21T17:31:50;4.53;;;4.07;;
8007;SDS011;4049;49.468;11.200;2023-08-21T17:34:16;6.03;;;4.95;;
8007;SDS011;4049;49.468;11.200;2023-08-21T17:36:43;6.00;;;4.68;;
8007;SDS011;4049;49.468;11.200;2023-08-21T17:39:12;4.70;;;4.30;;
8007;SDS011;4049;49.468;11.200;2023-08-21T17:41:41;5.32;;;4.72;;
8007;SDS011;4049;49.468;11.200;2023-08-21T17:44:08;5.35;;;4.75;;
8007;SDS011;4049;49.468;11.200;2023-08-21T17:46:35;5.13;;;4.63;;
8007;SDS011;4049;49.468;11.200;2023-08-21T17:49:02;9.05;;;4.20;;
8007;SDS011;4049;49.468;11.200;2023-08-21T17:51:29;4.60;;;4.10;;
8007;SDS011;4049;49.468;11.200;2023-08-21T17:53:56;6.40;;;4.50;;
8007;SDS011;4049;49.468;11.200;2023-08-21T17:56:22;5.07;;;4.57;;
8007;SDS011;4049;49.468;11.200;2023-08-21T17:58:50;6.55;;;4.57;;
8007;SDS011;4049;49.468;11.200;2023-08-21T18:01:17;5.15;;;4.28;;
8007;SDS011;4049;49.468;11.200;2023-08-21T18:03:44;5.97;;;4.57;;
8007;SDS011;4049;49.468;11.200;2023-08-21T18:06:11;5.68;;;4.93;;
8007;SDS011;4049;49.468;11.200;2023-08-21T18:08:50;7.97;;;4.95;;
8007;SDS011;4049;49.468;11.200;2023-08-21T18:11:17;6.07;;;4.80;;
8007;SDS011;4049;49.468;11.200;2023-08-21T18:13:44;7.07;;;5.45;;
8007;SDS011;4049;49.468;11.200;2023-08-21T18:16:12;7.40;;;4.78;;
8007;SDS011;4049;49.468;11.200;2023-08-21T18:18:39;6.03;;;4.93;;
8007;SDS011;4049;49.468;11.200;2023-08-21T18:21:07;6.30;;;5.20;;
8007;SDS011;4049;49.468;11.200;2023-08-21T18:23:34;6.85;;;5.28;;
8007;SDS011;4049;49.468;11.200;2023-08-21T18:26:00;8.13;;;5.68;;
8007;SDS011;4049;49.468;11.200;2023-08-21T18:28:27;6.63;;;5.47;;
8007;SDS011;4049;49.468;11.200;2023-08-21T18:30:55;7.90;;;5.82;;
8007;SDS011;4049;49.468;11.200;2023-08-21T18:33:24;6.05;;;5.35;;
8007;SDS011;4049;49.468;11.200;2023-08-21T18:35:51;6.45;;;5.45;;
8007;SDS011;4049;49.468;11.200;2023-08-21T18:38:19;7.18;;;5.85;;
8007;SDS011;4049;49.468;11.200;2023-08-21T18:40:47;7.72;;;5.97;;
8007;SDS011;4049;49.468;11.200;2023-08-21T18:43:14;6.55;;;5.90;;
8007;SDS011;4049;49.468;11.200;2023-08-21T18:45:40;8.13;;;5.72;;
8007;SDS011;4049;49.468;11.200;2023-08-21T18:48:07;7.63;;;5.70;;
8007;SDS011;4049;49.468;11.200;2023-08-21T18:50:36;7.78;;;5.57;;
8007;SDS011;4049;49.468;11.200;2023-08-21T18:53:10;6.53;;;5.82;;
8007;SDS011;4049;49.468;11.200;2023-08-21T18:55:39;9.05;;;5.75;;
8007;SDS011;4049;49.468;11.200;2023-08-21T18:58:11;7.78;;;5.45;;
8007;SDS011;4049;49.468;11.200;2023-08-21T19:00:41;7.22;;;5.20;;
8007;SDS011;4049;49.468;11.200;2023-08-21T19:03:08;8.57;;;5.47;;
8007;SDS011;4049;49.468;11.200;2023-08-21T19:05:36;6.50;;;5.40;;
8007;SDS011;4049;49.468;11.200;2023-08-21T19:08:03;8.20;;;5.57;;
8007;SDS011;4049;49.468;11.200;2023-08-21T19:10:30;7.05;;;6.03;;
8007;SDS011;4049;49.468;11.200;2023-08-21T19:12:57;8.82;;;5.97;;
8007;SDS011;4049;49.468;11.200;2023-08-21T19:15:25;7.35;;;6.05;;
8007;SDS011;4049;49.468;11.200;2023-08-21T19:17:53;7.57;;;5.85;;
8007;SDS011;4049;49.468;11.200;2023-08-21T19:20:20;8.18;;;6.90;;
8007;SDS011;4049;49.468;11.200;2023-08-21T19:22:48;7.15;;;6.15;;
8007;SDS011;4049;49.468;11.200;2023-08-21T19:25:15;7.57;;;6.30;;
8007;SDS011;4049;49.468;11.200;2023-08-21T19:27:42;6.57;;;5.72;;
8007;SDS011;4049;49.468;11.200;2023-08-21T19:30:11;5.57;;;5.07;;
8007;SDS011;4049;49.468;11.200;2023-08-21T19:32:38;6.72;;;5.95;;
8007;SDS011;4049;49.468;11.200;2023-08-21T19:35:07;6.45;;;5.80;;
8007;SDS011;4049;49.468;11.200;2023-08-21T19:37:35;7.00;;;5.85;;
8007;SDS011;4049;49.468;11.200;2023-08-21T19:40:03;7.60;;;5.95;;
8007;SDS011;4049;49.468;11.200;2023-08-21T19:42:31;5.68;;;5.18;;
8007;SDS011;4049;49.468;11.200;2023-08-21T19:44:58;8.55;;;6.40;;
8007;SDS011;4049;49.468;11.200;2023-08-21T19:47:25;7.00;;;5.95;;
8007;SDS011;4049;49.468;11.200;2023-08-21T19:49:52;8.38;;;5.57;;
8007;SDS011;4049;49.468;11.200;2023-08-21T19:52:18;8.50;;;5.90;;
8007;SDS011;4049;49.468;11.200;2023-08-21T19:54:45;7.55;;;5.93;;
8007;SDS011;4049;49.468;11.200;2023-08-21T19:57:14;6.95;;;5.50;;
8007;SDS011;4049;49.468;11.200;2023-08-21T19:59:41;6.75;;;5.97;;
8007;SDS011;4049;49.468;11.200;2023-08-21T20:02:08;6.60;;;5.88;;
8007;SDS011;4049;49.468;11.200;2023-08-21T20:04:35;8.35;;;6.18;;
8007;SDS011;4049;49.468;11.200;2023-08-21T20:07:02;8.50;;;5.78;;
8007;SDS011;4049;49.468;11.200;2023-08-21T20:09:31;6.63;;;5.30;;
8007;SDS011;4049;49.468;11.200;2023-08-21T20:11:58;9.18;;;6.05;;
8007;SDS011;4049;49.468;11.200;2023-08-21T20:14:26;7.95;;;6.22;;
8007;SDS011;4049;49.468;11.200;2023-08-21T20:16:52;6.65;;;5.63;;
8007;SDS011;4049;49.468;11.200;2023-08-21T20:19:19;8.35;;;6.25;;
8007;SDS011;4049;49.468;11.200;2023-08-21T20:21:46;10.15;;;6.18;;
8007;SDS011;4049;49.468;11.200;2023-08-21T20:24:13;6.70;;;6.00;;
8007;SDS011;4049;49.468;11.200;2023-08-21T20:26:40;8.25;;;6.68;;
8007;SDS011;4049;49.468;11.200;2023-08-21T20:29:06;7.43;;;6.50;;
8007;SDS011;4049;49.468;11.200;2023-08-21T20:31:37;7.43;;;6.57;;
8007;SDS011;4049;49.468;11.200;2023-08-21T20:34:05;8.05;;;6.25;;
8007;SDS011;4049;49.468;11.200;2023-08-21T20:36:33;8.48;;;6.78;;
8007;SDS011;4049;49.468;11.200;2023-08-21T20:39:01;7.97;;;6.72;;
8007;SDS011;4049;49.468;11.200;2023-08-21T20:41:29;7.82;;;6.97;;
8007;SDS011;4049;49.468;11.200;2023-08-21T20:43:57;9.18;;;7.70;;
8007;SDS011;4049;49.468;11.200;2023-08-21T20:46:23;10.93;;;6.57;;
8007;SDS011;4049;49.468;11.200;2023-08-21T20:48:52;6.85;;;6.03;;
8007;SDS011;4049;49.468;11.200;2023-08-21T20:51:18;7.63;;;6.32;;
8007;SDS011;4049;49.468;11.200;2023-08-21T20:53:47;7.18;;;6.22;;
8007;SDS011;4049;49.468;11.200;2023-08-21T20:56:14;7.40;;;6.57;;
8007;SDS011;4049;49.468;11.200;2023-08-21T20:58:41;9.68;;;6.50;;
8007;SDS011;4049;49.468;11.200;2023-08-21T21:01:08;8.20;;;6.40;;
8007;SDS011;4049;49.468;11.200;2023-08-21T21:03:37;7.22;;;6.53;;
8007;SDS011;4049;49.468;11.200;2023-08-21T21:06:05;8.25;;;6.38;;
8007;SDS011;4049;49.468;11.200;2023-08-21T21:08:32;7.30;;;6.00;;
8007;SDS011;4049;49.468;11.200;2023-08-21T21:10:59;9.38;;;6.93;;
8007;SDS011;4049;49.468;11.200;2023-08-21T21:13:28;6.90;;;6.20;;
8007;SDS011;4049;49.468;11.200;2023-08-21T21:15:55;10.23;;;6.53;;
8007;SDS011;4049;49.468;11.200;2023-08-21T21:18:22;7.90;;;6.55;;
8007;SDS011;4049;49.468;11.200;2023-08-21T21:20:51;7.95;;;6.60;;
8007;SDS011;4049;49.468;11.200;2023-08-21T21:23:19;9.85;;;6.55;;
8007;SDS011;4049;49.468;11.200;2023-08-21T21:25:46;8.65;;;6.90;;
8007;SDS011;4049;49.468;11.200;2023-08-21T21:28:13;7.47;;;6.78;;
8007;SDS011;4049;49.468;11.200;2023-08-21T21:30:40;10.25;;;7.03;;
8007;SDS011;4049;49.468;11.200;2023-08-21T21:33:13;9.57;;;6.97;;
8007;SDS011;4049;49.468;11.200;2023-08-21T21:35:41;8.15;;;6.65;;
8007;SDS011;4049;49.468;11.200;2023-08-21T21:38:08;8.48;;;6.60;;
8007;SDS011;4049;49.468;11.200;2023-08-21T21:40:36;7.35;;;6.43;;
8007;SDS011;4049;49.468;11.200;2023-08-21T21:43:06;7.43;;;6.35;;
8007;SDS011;4049;49.468;11.200;2023-08-21T21:45:33;8.88;;;6.55;;
8007;SDS011;4049;49.468;11.200;2023-08-21T21:48:01;8.27;;;5.93;;
8007;SDS011;4049;49.468;11.200;2023-08-21T21:50:28;7.53;;;6.15;;
8007;SDS011;4049;49.468;11.200;2023-08-21T21:52:55;7.53;;;6.15;;
8007;SDS011;4049;49.468;11.200;2023-08-21T21:55:21;9.13;;;6.95;;
8007;SDS011;4049;49.468;11.200;2023-08-21T21:57:50;8.45;;;6.82;;
8007;SDS011;4049;49.468;11.200;2023-08-21T22:00:17;15.10;;;6.93;;
8007;SDS011;4049;49.468;11.200;2023-08-21T22:02:44;8.10;;;6.95;;
8007;SDS011;4049;49.468;11.200;2023-08-21T22:05:11;8.75;;;6.80;;
8007;SDS011;4049;49.468;11.200;2023-08-21T22:07:38;7.25;;;5.97;;
8007;SDS011;4049;49.468;11.200;2023-08-21T22:10:06;10.65;;;7.45;;
8007;SDS011;4049;49.468;11.200;2023-08-21T22:12:34;7.70;;;6.85;;
8007;SDS011;4049;49.468;11.200;2023-08-21T22:15:02;7.80;;;6.68;;
8007;SDS011;4049;49.468;11.200;2023-08-21T22:17:29;8.32;;;7.00;;
8007;SDS011;4049;49.468;11.200;2023-08-21T22:19:56;8.88;;;6.88;;
8007;SDS011;4049;49.468;11.200;2023-08-21T22:22:25;7.82;;;6.40;;
8007;SDS011;4049;49.468;11.200;2023-08-21T22:24:52;9.55;;;6.93;;
8007;SDS011;4049;49.468;11.200;2023-08-21T22:27:18;9.65;;;6.35;;
8007;SDS011;4049;49.468;11.200;2023-08-21T22:29:45;7.75;;;6.45;;
8007;SDS011;4049;49.468;11.200;2023-08-21T22:32:13;8.05;;;6.68;;
8007;SDS011;4049;49.468;11.200;2023-08-21T22:34:41;8.23;;;6.90;;
8007;SDS011;4049;49.468;11.200;2023-08-21T22:37:08;7.90;;;7.07;;
8007;SDS011;4049;49.468;11.200;2023-08-21T22:39:35;6.80;;;6.10;;
8007;SDS011;4049;49.468;11.200;2023-08-21T22:42:02;8.15;;;6.93;;
8007;SDS011;4049;49.468;11.200;2023-08-21T22:44:29;8.70;;;6.90;;
8007;SDS011;4049;49.468;11.200;2023-08-21T22:46:56;9.38;;;6.70;;
8007;SDS011;4049;49.468;11.200;2023-08-21T22:49:24;8.27;;;6.80;;
8007;SDS011;4049;49.468;11.200;2023-08-21T22:51:51;7.82;;;6.40;;
8007;SDS011;4049;49.468;11.200;2023-08-21T22:54:18;8.93;;;6.82;;
8007;SDS011;4049;49.468;11.200;2023-08-21T22:56:45;10.13;;;6.75;;
8007;SDS011;4049;49.468;11.200;2023-08-21T22:59:12;8.63;;;7.43;;
8007;SDS011;4049;49.468;11.200;2023-08-21T23:04:12;9.30;;;6.90;;
8007;SDS011;4049;49.468;11.200;2023-08-21T23:06:41;7.88;;;6.32;;
8007;SDS011;4049;49.468;11.200;2023-08-21T23:09:08;7.35;;;6.65;;
8007;SDS011;4049;49.468;11.200;2023-08-21T23:11:37;9.68;;;6.90;;
8007;SDS011;4049;49.468;11.200;2023-08-21T23:14:04;8.65;;;6.47;;
8007;SDS011;4049;49.468;11.200;2023-08-21T23:16:32;10.45;;;6.55;;
8007;SDS011;4049;49.468;11.200;2023-08-21T23:18:59;8.40;;;6.47;;
8007;SDS011;4049;49.468;11.200;2023-08-21T23:21:27;8.32;;;6.10;;
8007;SDS011;4049;49.468;11.200;2023-08-21T23:23:55;7.10;;;6.40;;
8007;SDS011;4049;49.468;11.200;2023-08-21T23:26:22;8.05;;;6.43;;
8007;SDS011;4049;49.468;11.200;2023-08-21T23:28:49;9.95;;;7.00;;
8007;SDS011;4049;49.468;11.200;2023-08-21T23:31:16;9.40;;;7.07;;
8007;SDS011;4049;49.468;11.200;2023-08-21T23:33:43;10.90;;;7.93;;
8007;SDS011;4049;49.468;11.200;2023-08-21T23:36:10;9.45;;;7.80;;
8007;SDS011;4049;49.468;11.200;2023-08-21T23:38:37;7.90;;;7.10;;
8007;SDS011;4049;49.468;11.200;2023-08-21T23:41:05;8.98;;;7.35;;
8007;SDS011;4049;49.468;11.200;2023-08-21T23:43:32;12.05;;;8.02;;
8007;SDS011;4049;49.468;11.200;2023-08-21T23:46:01;10.55;;;7.45;;
8007;SDS011;4049;49.468;11.200;2023-08-21T23:48:32;9.30;;;6.90;;
8007;SDS011;4049;49.468;11.200;2023-08-21T23:50:59;10.13;;;7.28;;
8007;SDS011;4049;49.468;11.200;2023-08-21T23:53:26;10.75;;;6.95;;
8007;SDS011;4049;49.468;11.200;2023-08-21T23:55:55;9.38;;;7.38;;
8007;SDS011;4049;49.468;11.200;2023-08-21T23:58:26;10.48;;;7.47;;
